sensor_id;sensor_type;location;lat;lon;timestamp;pressure;altitude;pressure_sealevel;temperature;humidity
5966;BME280;3009;43.224;27.976;2023-04-19T00:01:20;99879.44;;;10.46;100.00
5966;BME280;3009;43.224;27.976;2023-04-19T00:03:49;99889.38;;;10.37;100.00
5966;BME280;3009;43.224;27.976;2023-04-19T00:06:18;99884.03;;;10.37;100.00
5966;BME280;3009;43.224;27.976;2023-04-19T00:08:48;99873.75;;;10.39;100.00
5966;BME280;3009;43.224;27.976;2023-04-19T00:11:17;99883.72;;;10.39;100.00
5966;BME280;3009;43.224;27.976;2023-04-19T00:13:46;99876.31;;;10.36;100.00
5966;BME280;3009;43.224;27.976;2023-04-19T00:16:17;99872.66;;;10.32;100.00
5966;BME280;3009;43.224;27.976;2023-04-19T00:18:45;99870.63;;;10.37;100.00
5966;BME280;3009;43.224;27.976;2023-04-19T00:21:14;99870.47;;;10.34;100.00
5966;BME280;3009;43.224;27.976;2023-04-19T00:23:43;99860.22;;;10.36;100.00
5966;BME280;3009;43.224;27.976;2023-04-19T00:26:12;99874.56;;;10.31;100.00
5966;BME280;3009;43.224;27.976;2023-04-19T00:28:43;99882.28;;;10.24;100.00
5966;BME280;3009;43.224;27.976;2023-04-19T00:31:11;99876.09;;;10.32;100.00
5966;BME280;3009;43.224;27.976;2023-04-19T00:33:40;99870.44;;;10.25;100.00
5966;BME280;3009;43.224;27.976;2023-04-19T00:36:09;99880.25;;;10.21;100.00
5966;BME280;3009;43.224;27.976;2023-04-19T00:38:37;99875.66;;;10.30;100.00
5966;BME280;3009;43.224;27.976;2023-04-19T00:41:06;99881.34;;;10.37;100.00
5966;BME280;3009;43.224;27.976;2023-04-19T00:43:35;99876.63;;;10.34;100.00
5966;BME280;3009;43.224;27.976;2023-04-19T00:46:05;99878.50;;;10.42;100.00
5966;BME280;3009;43.224;27.976;2023-04-19T00:48:33;99877.41;;;10.35;100.00
5966;BME280;3009;43.224;27.976;2023-04-19T00:51:04;99878.16;;;10.26;100.00
5966;BME280;3009;43.224;27.976;2023-04-19T00:53:33;99878.00;;;10.23;100.00
5966;BME280;3009;43.224;27.976;2023-04-19T00:56:03;99885.28;;;10.22;100.00
5966;BME280;3009;43.224;27.976;2023-04-19T00:58:36;99884.16;;;10.23;100.00
5966;BME280;3009;43.224;27.976;2023-04-19T01:01:07;99883.88;;;10.16;100.00
5966;BME280;3009;43.224;27.976;2023-04-19T01:03:35;99884.66;;;10.17;100.00
5966;BME280;3009;43.224;27.976;2023-04-19T01:06:04;99877.41;;;10.00;100.00
5966;BME280;3009;43.224;27.976;2023-04-19T01:08:32;99880.56;;;10.02;100.00
5966;BME280;3009;43.224;27.976;2023-04-19T01:11:01;99878.50;;;9.99;100.00
5966;BME280;3009;43.224;27.976;2023-04-19T01:13:30;99878.38;;;9.95;100.00
5966;BME280;3009;43.224;27.976;2023-04-19T01:15:58;99874.88;;;9.94;100.00
5966;BME280;3009;43.224;27.976;2023-04-19T01:18:28;99879.47;;;9.94;100.00
5966;BME280;3009;43.224;27.976;2023-04-19T01:21:04;99882.28;;;9.98;100.00
5966;BME280;3009;43.224;27.976;2023-04-19T01:23:34;99873.47;;;9.97;100.00
5966;BME280;3009;43.224;27.976;2023-04-19T01:26:05;99876.59;;;9.99;100.00
5966;BME280;3009;43.224;27.976;2023-04-19T01:28:36;99871.88;;;10.05;100.00
5966;BME280;3009;43.224;27.976;2023-04-19T01:31:05;99866.22;;;10.06;100.00
5966;BME280;3009;43.224;27.976;2023-04-19T01:33:33;99867.47;;;10.09;100.00
5966;BME280;3009;43.224;27.976;2023-04-19T01:36:01;99857.84;;;10.08;100.00
5966;BME280;3009;43.224;27.976;2023-04-19T01:38:30;99867.16;;;10.10;100.00
5966;BME280;3009;43.224;27.976;2023-04-19T01:41:00;99861.94;;;10.14;100.00
5966;BME280;3009;43.224;27.976;2023-04-19T01:43:28;99851.41;;;10.09;100.00
5966;BME280;3009;43.224;27.976;2023-04-19T01:45:57;99852.81;;;10.06;100.00
5966;BME280;3009;43.224;27.976;2023-04-19T01:48:25;99853.91;;;10.05;100.00
5966;BME280;3009;43.224;27.976;2023-04-19T01:50:54;99855.03;;;10.13;100.00
5966;BME280;3009;43.224;27.976;2023-04-19T01:53:22;99857.09;;;10.07;100.00
5966;BME280;3009;43.224;27.976;2023-04-19T01:55:53;99857.22;;;10.11;100.00
5966;BME280;3009;43.224;27.976;2023-04-19T01:58:23;99861.50;;;10.03;100.00
5966;BME280;3009;43.224;27.976;2023-04-19T02:00:51;99865.91;;;9.99;100.00
5966;BME280;3009;43.224;27.976;2023-04-19T02:03:19;99864.50;;;10.02;100.00
5966;BME280;3009;43.224;27.976;2023-04-19T02:05:48;99868.44;;;10.04;100.00
5966;BME280;3009;43.224;27.976;2023-04-19T02:08:16;99870.63;;;10.02;100.00
5966;BME280;3009;43.224;27.976;2023-04-19T02:10:47;99880.09;;;9.91;100.00
5966;BME280;3009;43.224;27.976;2023-04-19T02:13:15;99867.97;;;9.93;100.00
5966;BME280;3009;43.224;27.976;2023-04-19T02:15:45;99869.38;;;9.91;100.00
5966;BME280;3009;43.224;27.976;2023-04-19T02:18:13;99872.38;;;9.89;100.00
5966;BME280;3009;43.224;27.976;2023-04-19T02:20:44;99859.13;;;9.93;100.00
5966;BME280;3009;43.224;27.976;2023-04-19T02:23:12;99854.72;;;9.97;100.00
5966;BME280;3009;43.224;27.976;2023-04-19T02:25:40;99857.09;;;9.99;100.00
5966;BME280;3009;43.224;27.976;2023-04-19T02:28:09;99850.94;;;9.98;100.00
5966;BME280;3009;43.224;27.976;2023-04-19T02:30:39;99854.25;;;9.95;100.00
5966;BME280;3009;43.224;27.976;2023-04-19T02:33:09;99856.00;;;10.00;100.00
5966;BME280;3009;43.224;27.976;2023-04-19T02:35:37;99849.50;;;10.01;100.00
5966;BME280;3009;43.224;27.976;2023-04-19T02:38:13;99849.06;;;9.99;100.00
5966;BME280;3009;43.224;27.976;2023-04-19T02:40:41;99850.47;;;10.05;100.00
5966;BME280;3009;43.224;27.976;2023-04-19T02:43:09;99853.63;;;9.98;100.00
5966;BME280;3009;43.224;27.976;2023-04-19T02:45:38;99850.94;;;9.98;100.00
5966;BME280;3009;43.224;27.976;2023-04-19T02:48:07;99841.34;;;9.97;100.00
5966;BME280;3009;43.224;27.976;2023-04-19T02:50:37;99841.16;;;10.02;100.00
5966;BME280;3009;43.224;27.976;2023-04-19T02:53:05;99839.13;;;9.99;100.00
5966;BME280;3009;43.224;27.976;2023-04-19T02:55:34;99842.75;;;9.94;100.00
5966;BME280;3009;43.224;27.976;2023-04-19T02:58:02;99843.69;;;9.99;100.00
5966;BME280;3009;43.224;27.976;2023-04-19T03:00:30;99835.81;;;10.02;100.00
5966;BME280;3009;43.224;27.976;2023-04-19T03:02:59;99833.63;;;9.96;100.00
5966;BME280;3009;43.224;27.976;2023-04-19T03:05:29;99835.66;;;9.99;100.00
5966;BME280;3009;43.224;27.976;2023-04-19T03:07:59;99831.06;;;9.99;100.00
5966;BME280;3009;43.224;27.976;2023-04-19T03:10:27;99839.44;;;10.06;100.00
5966;BME280;3009;43.224;27.976;2023-04-19T03:12:56;99836.13;;;10.09;100.00
5966;BME280;3009;43.224;27.976;2023-04-19T03:15:24;99836.94;;;10.01;100.00
5966;BME280;3009;43.224;27.976;2023-04-19T03:17:53;99840.06;;;9.94;100.00
5966;BME280;3009;43.224;27.976;2023-04-19T03:20:21;99833.13;;;10.02;100.00
5966;BME280;3009;43.224;27.976;2023-04-19T03:22:49;99838.47;;;10.02;100.00
5966;BME280;3009;43.224;27.976;2023-04-19T03:25:19;99837.84;;;10.05;100.00
5966;BME280;3009;43.224;27.976;2023-04-19T03:27:48;99834.56;;;10.00;100.00
5966;BME280;3009;43.224;27.976;2023-04-19T03:30:17;99836.16;;;9.92;100.00
5966;BME280;3009;43.224;27.976;2023-04-19T03:32:46;99839.28;;;9.94;100.00
5966;BME280;3009;43.224;27.976;2023-04-19T03:35:15;99842.44;;;9.87;100.00
5966;BME280;3009;43.224;27.976;2023-04-19T03:37:43;99840.09;;;9.86;100.00
5966;BME280;3009;43.224;27.976;2023-04-19T03:40:12;99837.25;;;9.91;100.00
5966;BME280;3009;43.224;27.976;2023-04-19T03:42:42;99836.44;;;9.99;100.00
5966;BME280;3009;43.224;27.976;2023-04-19T03:45:11;99837.06;;;10.05;100.00
5966;BME280;3009;43.224;27.976;2023-04-19T03:47:39;99836.59;;;9.94;100.00
5966;BME280;3009;43.224;27.976;2023-04-19T03:50:08;99834.25;;;10.01;100.00
5966;BME280;3009;43.224;27.976;2023-04-19T03:52:39;99830.94;;;10.04;100.00
5966;BME280;3009;43.224;27.976;2023-04-19T03:55:08;99838.97;;;9.96;100.00
5966;BME280;3009;43.224;27.976;2023-04-19T03:57:38;99836.13;;;10.01;100.00
5966;BME280;3009;43.224;27.976;2023-04-19T04:00:09;99841.00;;;10.07;100.00
5966;BME280;3009;43.224;27.976;2023-04-19T04:02:38;99837.69;;;10.10;100.00
5966;BME280;3009;43.224;27.976;2023-04-19T04:05:07;99835.66;;;10.07;100.00
5966;BME280;3009;43.224;27.976;2023-04-19T04:07:36;99846.50;;;10.11;100.00
5966;BME280;3009;43.224;27.976;2023-04-19T04:10:06;99846.50;;;10.20;100.00
5966;BME280;3009;43.224;27.976;2023-04-19T04:12:34;99833.09;;;10.20;100.00
5966;BME280;3009;43.224;27.976;2023-04-19T04:15:03;99837.06;;;10.22;100.00
5966;BME280;3009;43.224;27.976;2023-04-19T04:17:33;99838.59;;;10.23;100.00
5966;BME280;3009;43.224;27.976;2023-04-19T04:20:02;99847.31;;;10.11;100.00
5966;BME280;3009;43.224;27.976;2023-04-19T04:22:32;99841.16;;;10.11;100.00
5966;BME280;3009;43.224;27.976;2023-04-19T04:25:00;99841.78;;;10.08;100.00
5966;BME280;3009;43.224;27.976;2023-04-19T04:27:28;99834.69;;;10.12;100.00
5966;BME280;3009;43.224;27.976;2023-04-19T04:29:57;99834.06;;;10.06;100.00
5966;BME280;3009;43.224;27.976;2023-04-19T04:32:25;99840.69;;;10.18;100.00
5966;BME280;3009;43.224;27.976;2023-04-19T04:34:55;99836.41;;;10.17;100.00
5966;BME280;3009;43.224;27.976;2023-04-19T04:37:24;99838.47;;;10.11;100.00
5966;BME280;3009;43.224;27.976;2023-04-19T04:39:52;99839.91;;;10.00;100.00
5966;BME280;3009;43.224;27.976;2023-04-19T04:42:21;99842.75;;;10.12;100.00
5966;BME280;3009;43.224;27.976;2023-04-19T04:44:49;99841.63;;;10.13;100.00
5966;BME280;3009;43.224;27.976;2023-04-19T04:47:19;99849.19;;;10.20;100.00
5966;BME280;3009;43.224;27.976;2023-04-19T04:49:48;99836.44;;;10.08;100.00
5966;BME280;3009;43.224;27.976;2023-04-19T04:52:17;99838.00;;;10.18;100.00
5966;BME280;3009;43.224;27.976;2023-04-19T04:54:46;99838.66;;;10.06;100.00
5966;BME280;3009;43.224;27.976;2023-04-19T04:57:14;99847.91;;;10.17;100.00
5966;BME280;3009;43.224;27.976;2023-04-19T04:59:43;99836.75;;;10.15;100.00
5966;BME280;3009;43.224;27.976;2023-04-19T05:02:11;99846.19;;;10.04;100.00
5966;BME280;3009;43.224;27.976;2023-04-19T05:04:40;99844.00;;;10.06;100.00
5966;BME280;3009;43.224;27.976;2023-04-19T05:07:09;99843.88;;;9.93;100.00
5966;BME280;3009;43.224;27.976;2023-04-19T05:09:39;99847.00;;;9.96;100.00
5966;BME280;3009;43.224;27.976;2023-04-19T05:12:07;99849.06;;;9.99;100.00
5966;BME280;3009;43.224;27.976;2023-04-19T05:14:36;99854.25;;;9.86;100.00
5966;BME280;3009;43.224;27.976;2023-04-19T05:17:04;99849.69;;;9.87;100.00
5966;BME280;3009;43.224;27.976;2023-04-19T05:19:33;99856.16;;;9.86;100.00
5966;BME280;3009;43.224;27.976;2023-04-19T05:22:01;99850.63;;;9.82;100.00
5966;BME280;3009;43.224;27.976;2023-04-19T05:24:30;99852.03;;;9.80;100.00
5966;BME280;3009;43.224;27.976;2023-04-19T05:26:59;99848.72;;;9.91;100.00
5966;BME280;3009;43.224;27.976;2023-04-19T05:29:28;99853.16;;;9.79;100.00
5966;BME280;3009;43.224;27.976;2023-04-19T05:31:57;99861.19;;;9.79;100.00
5966;BME280;3009;43.224;27.976;2023-04-19T05:34:25;99855.38;;;9.68;100.00
5966;BME280;3009;43.224;27.976;2023-04-19T05:36:54;99854.72;;;9.62;100.00
5966;BME280;3009;43.224;27.976;2023-04-19T05:39:22;99854.75;;;9.71;100.00
5966;BME280;3009;43.224;27.976;2023-04-19T05:41:51;99850.78;;;9.68;100.00
5966;BME280;3009;43.224;27.976;2023-04-19T05:44:21;99859.91;;;9.67;100.00
5966;BME280;3009;43.224;27.976;2023-04-19T05:46:49;99853.94;;;9.70;100.00
5966;BME280;3009;43.224;27.976;2023-04-19T05:49:18;99858.66;;;9.73;100.00
5966;BME280;3009;43.224;27.976;2023-04-19T05:51:46;99858.03;;;9.68;100.00
5966;BME280;3009;43.224;27.976;2023-04-19T05:54:14;99853.31;;;9.65;100.00
5966;BME280;3009;43.224;27.976;2023-04-19T05:56:43;99858.50;;;9.61;100.00
5966;BME280;3009;43.224;27.976;2023-04-19T05:59:11;99858.66;;;9.73;100.00
5966;BME280;3009;43.224;27.976;2023-04-19T06:01:41;99856.94;;;9.78;100.00
5966;BME280;3009;43.224;27.976;2023-04-19T06:04:10;99855.97;;;9.73;100.00
5966;BME280;3009;43.224;27.976;2023-04-19T06:06:39;99862.59;;;9.76;100.00
5966;BME280;3009;43.224;27.976;2023-04-19T06:09:07;99862.13;;;9.83;100.00
5966;BME280;3009;43.224;27.976;2023-04-19T06:11:35;99853.78;;;9.93;100.00
5966;BME280;3009;43.224;27.976;2023-04-19T06:14:16;99857.88;;;9.90;100.00
5966;BME280;3009;43.224;27.976;2023-04-19T06:16:46;99867.03;;;9.89;100.00
5966;BME280;3009;43.224;27.976;2023-04-19T06:19:14;99854.25;;;9.95;100.00
5966;BME280;3009;43.224;27.976;2023-04-19T06:21:43;99864.63;;;10.05;100.00
5966;BME280;3009;43.224;27.976;2023-04-19T06:24:11;99860.53;;;9.99;100.00
5966;BME280;3009;43.224;27.976;2023-04-19T06:26:40;99865.75;;;10.04;100.00
5966;BME280;3009;43.224;27.976;2023-04-19T06:29:09;99863.53;;;10.06;100.00
5966;BME280;3009;43.224;27.976;2023-04-19T06:31:37;99870.63;;;10.02;100.00
5966;BME280;3009;43.224;27.976;2023-04-19T06:34:07;99875.66;;;10.04;100.00
5966;BME280;3009;43.224;27.976;2023-04-19T06:36:36;99880.41;;;10.33;100.00
5966;BME280;3009;43.224;27.976;2023-04-19T06:39:05;99879.13;;;10.39;100.00
5966;BME280;3009;43.224;27.976;2023-04-19T06:41:34;99879.00;;;10.36;100.00
5966;BME280;3009;43.224;27.976;2023-04-19T06:44:02;99878.78;;;10.32;100.00
5966;BME280;3009;43.224;27.976;2023-04-19T06:46:31;99881.00;;;10.48;100.00
5966;BME280;3009;43.224;27.976;2023-04-19T06:48:59;99888.13;;;10.43;100.00
5966;BME280;3009;43.224;27.976;2023-04-19T06:51:29;99896.63;;;10.37;100.00
5966;BME280;3009;43.224;27.976;2023-04-19T06:53:57;99894.88;;;10.32;100.00
5966;BME280;3009;43.224;27.976;2023-04-19T06:56:39;99895.19;;;10.22;100.00
5966;BME280;3009;43.224;27.976;2023-04-19T06:59:07;99888.44;;;10.33;100.00
5966;BME280;3009;43.224;27.976;2023-04-19T07:01:36;99893.94;;;10.45;100.00
5966;BME280;3009;43.224;27.976;2023-04-19T07:04:05;99897.22;;;10.51;100.00
5966;BME280;3009;43.224;27.976;2023-04-19T07:06:35;99892.31;;;10.62;100.00
5966;BME280;3009;43.224;27.976;2023-04-19T07:09:04;99892.00;;;10.63;100.00
5966;BME280;3009;43.224;27.976;2023-04-19T07:11:33;99900.81;;;10.64;100.00
5966;BME280;3009;43.224;27.976;2023-04-19T07:14:02;99893.91;;;10.63;100.00
5966;BME280;3009;43.224;27.976;2023-04-19T07:16:30;99906.03;;;10.60;100.00
5966;BME280;3009;43.224;27.976;2023-04-19T07:18:59;99905.41;;;10.63;100.00
5966;BME280;3009;43.224;27.976;2023-04-19T07:21:27;99899.69;;;10.74;100.00
5966;BME280;3009;43.224;27.976;2023-04-19T07:24:00;99906.63;;;10.75;100.00
5966;BME280;3009;43.224;27.976;2023-04-19T07:26:29;99917.50;;;10.78;100.00
5966;BME280;3009;43.224;27.976;2023-04-19T07:28:57;99915.69;;;10.53;100.00
5966;BME280;3009;43.224;27.976;2023-04-19T07:31:26;99919.00;;;10.58;100.00
5966;BME280;3009;43.224;27.976;2023-04-19T07:33:55;99935.84;;;10.59;100.00
5966;BME280;3009;43.224;27.976;2023-04-19T07:36:23;99927.63;;;10.64;100.00
5966;BME280;3009;43.224;27.976;2023-04-19T07:38:52;99930.94;;;10.61;100.00
5966;BME280;3009;43.224;27.976;2023-04-19T07:41:22;99936.63;;;10.68;100.00
5966;BME280;3009;43.224;27.976;2023-04-19T07:43:50;99933.28;;;10.71;100.00
5966;BME280;3009;43.224;27.976;2023-04-19T07:46:19;99932.53;;;10.71;100.00
5966;BME280;3009;43.224;27.976;2023-04-19T07:48:47;99936.47;;;10.64;100.00
5966;BME280;3009;43.224;27.976;2023-04-19T07:51:16;99935.09;;;10.50;100.00
5966;BME280;3009;43.224;27.976;2023-04-19T07:53:46;99939.19;;;10.47;100.00
5966;BME280;3009;43.224;27.976;2023-04-19T07:56:14;99941.84;;;10.38;100.00
5966;BME280;3009;43.224;27.976;2023-04-19T07:58:44;99945.00;;;10.23;100.00
5966;BME280;3009;43.224;27.976;2023-04-19T08:01:30;99944.22;;;10.31;100.00
5966;BME280;3009;43.224;27.976;2023-04-19T08:03:59;99948.66;;;10.36;100.00
5966;BME280;3009;43.224;27.976;2023-04-19T08:06:28;99948.63;;;10.44;100.00
5966;BME280;3009;43.224;27.976;2023-04-19T08:08:56;99949.72;;;10.26;100.00
5966;BME280;3009;43.224;27.976;2023-04-19T08:11:25;99946.44;;;10.38;100.00
5966;BME280;3009;43.224;27.976;2023-04-19T08:13:55;99949.13;;;10.38;100.00
5966;BME280;3009;43.224;27.976;2023-04-19T08:16:43;99944.84;;;10.37;100.00
5966;BME280;3009;43.224;27.976;2023-04-19T08:19:14;99948.03;;;10.39;100.00
5966;BME280;3009;43.224;27.976;2023-04-19T08:21:43;99950.38;;;10.40;100.00
5966;BME280;3009;43.224;27.976;2023-04-19T08:24:11;99945.81;;;10.50;100.00
5966;BME280;3009;43.224;27.976;2023-04-19T08:26:40;99950.38;;;10.40;100.00
5966;BME280;3009;43.224;27.976;2023-04-19T08:29:10;99948.63;;;10.27;100.00
5966;BME280;3009;43.224;27.976;2023-04-19T08:31:38;99957.59;;;10.14;100.00
5966;BME280;3009;43.224;27.976;2023-04-19T08:34:06;99951.75;;;10.20;100.00
5966;BME280;3009;43.224;27.976;2023-04-19T08:36:35;99949.44;;;10.36;100.00
5966;BME280;3009;43.224;27.976;2023-04-19T08:39:14;99957.63;;;10.31;100.00
5966;BME280;3009;43.224;27.976;2023-04-19T08:42:03;99962.03;;;10.44;100.00
5966;BME280;3009;43.224;27.976;2023-04-19T08:44:52;99960.75;;;10.16;100.00
5966;BME280;3009;43.224;27.976;2023-04-19T08:47:43;99955.41;;;10.16;100.00
5966;BME280;3009;43.224;27.976;2023-04-19T08:50:26;99953.50;;;10.25;100.00
5966;BME280;3009;43.224;27.976;2023-04-19T08:52:58;99951.78;;;10.29;100.00
5966;BME280;3009;43.224;27.976;2023-04-19T08:55:47;99946.44;;;10.38;100.00
5966;BME280;3009;43.224;27.976;2023-04-19T08:58:37;99955.25;;;10.64;100.00
5966;BME280;3009;43.224;27.976;2023-04-19T09:01:27;99943.25;;;11.09;100.00
5966;BME280;3009;43.224;27.976;2023-04-19T09:04:03;99932.97;;;11.20;100.00
5966;BME280;3009;43.224;27.976;2023-04-19T09:06:54;99927.97;;;11.10;100.00
5966;BME280;3009;43.224;27.976;2023-04-19T09:09:25;99935.53;;;11.08;100.00
5966;BME280;3009;43.224;27.976;2023-04-19T09:11:58;99939.78;;;11.17;100.00
5966;BME280;3009;43.224;27.976;2023-04-19T09:14:27;99928.94;;;11.35;100.00
5966;BME280;3009;43.224;27.976;2023-04-19T09:17:13;99927.16;;;11.48;100.00
5966;BME280;3009;43.224;27.976;2023-04-19T09:19:45;99927.44;;;11.55;100.00
5966;BME280;3009;43.224;27.976;2023-04-19T09:22:14;99933.88;;;11.33;100.00
5966;BME280;3009;43.224;27.976;2023-04-19T09:24:42;99929.09;;;11.39;100.00
5966;BME280;3009;43.224;27.976;2023-04-19T09:27:15;99928.78;;;11.70;100.00
5966;BME280;3009;43.224;27.976;2023-04-19T09:29:52;99936.34;;;11.98;100.00
5966;BME280;3009;43.224;27.976;2023-04-19T09:32:22;99926.97;;;12.04;100.00
5966;BME280;3009;43.224;27.976;2023-04-19T09:34:52;99933.72;;;11.80;100.00
5966;BME280;3009;43.224;27.976;2023-04-19T09:37:21;99927.00;;;12.16;100.00
5966;BME280;3009;43.224;27.976;2023-04-19T09:39:53;99932.97;;;12.22;100.00
5966;BME280;3009;43.224;27.976;2023-04-19T09:42:21;99928.84;;;12.25;100.00
5966;BME280;3009;43.224;27.976;2023-04-19T09:45:10;99930.09;;;12.06;100.00
5966;BME280;3009;43.224;27.976;2023-04-19T09:48:04;99927.81;;;11.96;100.00
5966;BME280;3009;43.224;27.976;2023-04-19T09:50:34;99929.53;;;11.70;100.00
5966;BME280;3009;43.224;27.976;2023-04-19T09:53:20;99936.81;;;11.91;100.00
5966;BME280;3009;43.224;27.976;2023-04-19T09:55:48;99935.63;;;11.29;100.00
5966;BME280;3009;43.224;27.976;2023-04-19T09:58:28;99940.50;;;11.35;100.00
5966;BME280;3009;43.224;27.976;2023-04-19T10:01:15;99938.75;;;11.61;100.00
5966;BME280;3009;43.224;27.976;2023-04-19T10:03:48;99931.75;;;11.47;100.00
5966;BME280;3009;43.224;27.976;2023-04-19T10:06:19;99934.00;;;11.66;100.00
5966;BME280;3009;43.224;27.976;2023-04-19T10:08:52;99934.75;;;11.67;100.00
5966;BME280;3009;43.224;27.976;2023-04-19T10:11:21;99936.09;;;11.82;100.00
5966;BME280;3009;43.224;27.976;2023-04-19T10:13:55;99936.25;;;11.85;100.00
5966;BME280;3009;43.224;27.976;2023-04-19T10:16:25;99928.06;;;12.03;100.00
5966;BME280;3009;43.224;27.976;2023-04-19T10:18:55;99928.16;;;12.15;100.00
5966;BME280;3009;43.224;27.976;2023-04-19T10:21:26;99925.75;;;12.14;100.00
5966;BME280;3009;43.224;27.976;2023-04-19T10:23:55;99922.31;;;12.13;100.00
5966;BME280;3009;43.224;27.976;2023-04-19T10:26:24;99926.41;;;12.32;100.00
5966;BME280;3009;43.224;27.976;2023-04-19T10:28:53;99922.59;;;11.91;100.00
5966;BME280;3009;43.224;27.976;2023-04-19T10:31:25;99923.69;;;11.98;100.00
5966;BME280;3009;43.224;27.976;2023-04-19T10:33:55;99928.94;;;12.16;100.00
5966;BME280;3009;43.224;27.976;2023-04-19T10:36:26;99930.97;;;11.98;100.00
5966;BME280;3009;43.224;27.976;2023-04-19T10:38:55;99929.09;;;11.89;100.00
5966;BME280;3009;43.224;27.976;2023-04-19T10:41:56;99929.72;;;11.95;100.00
5966;BME280;3009;43.224;27.976;2023-04-19T10:44:25;99930.56;;;12.08;100.00
5966;BME280;3009;43.224;27.976;2023-04-19T10:46:53;99931.72;;;12.19;100.00
5966;BME280;3009;43.224;27.976;2023-04-19T10:49:26;99930.94;;;12.19;100.00
5966;BME280;3009;43.224;27.976;2023-04-19T10:51:55;99925.34;;;11.82;100.00
5966;BME280;3009;43.224;27.976;2023-04-19T10:54:27;99925.94;;;11.87;100.00
5966;BME280;3009;43.224;27.976;2023-04-19T10:57:01;99936.41;;;12.10;100.00
5966;BME280;3009;43.224;27.976;2023-04-19T10:59:32;99930.09;;;12.06;100.00
5966;BME280;3009;43.224;27.976;2023-04-19T11:02:02;99934.56;;;12.02;100.00
5966;BME280;3009;43.224;27.976;2023-04-19T11:05:00;99925.63;;;12.31;100.00
5966;BME280;3009;43.224;27.976;2023-04-19T11:07:36;99919.91;;;12.66;100.00
5966;BME280;3009;43.224;27.976;2023-04-19T11:10:07;99930.91;;;12.86;100.00
5966;BME280;3009;43.224;27.976;2023-04-19T11:12:35;99924.44;;;13.11;100.00
5966;BME280;3009;43.224;27.976;2023-04-19T11:15:05;99919.59;;;12.80;100.00
5966;BME280;3009;43.224;27.976;2023-04-19T11:17:35;99926.28;;;12.62;100.00
5966;BME280;3009;43.224;27.976;2023-04-19T11:20:08;99930.88;;;12.61;100.00
5966;BME280;3009;43.224;27.976;2023-04-19T11:22:38;99928.19;;;12.28;100.00
5966;BME280;3009;43.224;27.976;2023-04-19T11:25:09;99936.41;;;12.10;100.00
5966;BME280;3009;43.224;27.976;2023-04-19T11:27:39;99939.75;;;12.07;100.00
5966;BME280;3009;43.224;27.976;2023-04-19T11:30:09;99931.69;;;12.07;100.00
5966;BME280;3009;43.224;27.976;2023-04-19T11:32:43;99929.00;;;11.77;100.00
5966;BME280;3009;43.224;27.976;2023-04-19T11:35:14;99930.75;;;12.03;100.00
5966;BME280;3009;43.224;27.976;2023-04-19T11:37:45;99931.78;;;12.11;100.00
5966;BME280;3009;43.224;27.976;2023-04-19T11:40:14;99927.00;;;12.37;100.00
5966;BME280;3009;43.224;27.976;2023-04-19T11:42:43;99922.03;;;12.61;100.00
5966;BME280;3009;43.224;27.976;2023-04-19T11:45:22;99925.59;;;12.65;100.00
5966;BME280;3009;43.224;27.976;2023-04-19T11:47:57;99923.25;;;11.87;100.00
5966;BME280;3009;43.224;27.976;2023-04-19T11:50:35;99926.56;;;11.93;100.00
5966;BME280;3009;43.224;27.976;2023-04-19T11:53:12;99930.31;;;11.71;100.00
5966;BME280;3009;43.224;27.976;2023-04-19T11:55:42;99923.31;;;11.79;100.00
5966;BME280;3009;43.224;27.976;2023-04-19T11:58:27;99923.78;;;11.81;100.00
5966;BME280;3009;43.224;27.976;2023-04-19T12:01:00;99919.59;;;12.13;100.00
5966;BME280;3009;43.224;27.976;2023-04-19T12:03:29;99919.94;;;12.45;100.00
5966;BME280;3009;43.224;27.976;2023-04-19T12:06:01;99907.78;;;12.27;100.00
5966;BME280;3009;43.224;27.976;2023-04-19T12:08:35;99911.09;;;12.11;100.00
5966;BME280;3009;43.224;27.976;2023-04-19T12:11:04;99922.59;;;11.91;100.00
5966;BME280;3009;43.224;27.976;2023-04-19T12:13:35;99916.06;;;11.79;100.00
5966;BME280;3009;43.224;27.976;2023-04-19T12:16:03;99916.16;;;11.62;100.00
5966;BME280;3009;43.224;27.976;2023-04-19T12:18:43;99912.56;;;11.58;100.00
5966;BME280;3009;43.224;27.976;2023-04-19T12:21:24;99911.03;;;11.48;100.00
5966;BME280;3009;43.224;27.976;2023-04-19T12:23:54;99902.22;;;11.47;100.00
5966;BME280;3009;43.224;27.976;2023-04-19T12:26:23;99892.94;;;11.36;100.00
5966;BME280;3009;43.224;27.976;2023-04-19T12:28:52;99893.28;;;11.34;100.00
5966;BME280;3009;43.224;27.976;2023-04-19T12:31:21;99901.84;;;11.28;100.00
5966;BME280;3009;43.224;27.976;2023-04-19T12:33:49;99892.22;;;11.27;100.00
5966;BME280;3009;43.224;27.976;2023-04-19T12:36:18;99887.06;;;11.64;100.00
5966;BME280;3009;43.224;27.976;2023-04-19T12:38:48;99874.88;;;11.45;100.00
5966;BME280;3009;43.224;27.976;2023-04-19T12:41:17;99897.31;;;11.49;100.00
5966;BME280;3009;43.224;27.976;2023-04-19T12:43:48;99895.06;;;11.51;100.00
5966;BME280;3009;43.224;27.976;2023-04-19T12:46:16;99891.22;;;11.82;100.00
5966;BME280;3009;43.224;27.976;2023-04-19T12:48:44;99882.59;;;11.98;100.00
5966;BME280;3009;43.224;27.976;2023-04-19T12:51:13;99889.13;;;12.09;100.00
5966;BME280;3009;43.224;27.976;2023-04-19T12:53:48;99888.28;;;12.17;100.00
5966;BME280;3009;43.224;27.976;2023-04-19T12:56:16;99890.25;;;12.41;100.00
5966;BME280;3009;43.224;27.976;2023-04-19T12:58:45;99879.34;;;12.26;100.00
5966;BME280;3009;43.224;27.976;2023-04-19T13:01:14;99891.44;;;12.32;100.00
5966;BME280;3009;43.224;27.976;2023-04-19T13:03:42;99899.41;;;12.28;100.00
5966;BME280;3009;43.224;27.976;2023-04-19T13:06:11;99881.31;;;12.16;100.00
5966;BME280;3009;43.224;27.976;2023-04-19T13:08:41;99882.16;;;11.96;100.00
5966;BME280;3009;43.224;27.976;2023-04-19T13:11:15;99884.88;;;12.08;100.00
5966;BME280;3009;43.224;27.976;2023-04-19T13:13:50;99896.59;;;12.25;100.00
5966;BME280;3009;43.224;27.976;2023-04-19T13:16:19;99893.03;;;11.99;100.00
5966;BME280;3009;43.224;27.976;2023-04-19T13:18:48;99892.47;;;12.06;100.00
5966;BME280;3009;43.224;27.976;2023-04-19T13:21:19;99894.44;;;12.18;100.00